createdAt,value
2022-11-28T00:06:52.969Z,1017.59
2022-11-28T00:21:53.709Z,1017.55
2022-11-28T00:36:54.729Z,1017.42
2022-11-28T00:51:55.004Z,1017.36
2022-11-28T01:06:55.623Z,1017.15
2022-11-28T01:21:55.844Z,1016.96
2022-11-28T01:36:56.353Z,1016.79
2022-11-28T01:51:57.765Z,1016.66
2022-11-28T02:06:58.759Z,1016.47
2022-11-28T02:21:59.488Z,1016.28
2022-11-28T02:36:59.629Z,1016.26
2022-11-28T02:51:59.843Z,1016.15
2022-11-28T03:07:00.447Z,1016.03
2022-11-28T03:22:02.251Z,1015.91
2022-11-28T03:37:04.538Z,1015.83
2022-11-28T03:52:06.383Z,1015.69
2022-11-28T04:07:07.127Z,1015.57
2022-11-28T04:22:09.060Z,1015.46
2022-11-28T04:37:10.079Z,1015.35
2022-11-28T04:52:10.414Z,1015.23
2022-11-28T05:07:11.420Z,1015.24
2022-11-28T05:22:11.623Z,1015.22
2022-11-28T05:37:12.653Z,1015.17
2022-11-28T05:52:12.826Z,1014.97
2022-11-28T06:07:14.740Z,1014.78
2022-11-28T06:22:15.800Z,1014.61
2022-11-28T06:37:17.181Z,1014.75
2022-11-28T06:52:18.887Z,1014.77
2022-11-28T07:07:20.665Z,1014.77
2022-11-28T07:22:20.921Z,1014.67
2022-11-28T07:37:22.099Z,1014.74
2022-11-28T07:52:24.571Z,1014.74
2022-11-28T08:07:25.498Z,1014.58
2022-11-28T08:22:25.297Z,1014.47
2022-11-28T08:37:25.878Z,1014.38
2022-11-28T08:52:25.504Z,1014.45
2022-11-28T09:07:25.618Z,1014.60
2022-11-28T09:22:25.727Z,1014.73
2022-11-28T09:37:26.879Z,1014.52
2022-11-28T09:52:28.084Z,1014.53
2022-11-28T10:07:29.123Z,1014.47
2022-11-28T10:22:30.188Z,1014.44
2022-11-28T10:37:32.039Z,1014.11
2022-11-28T10:52:32.659Z,1014.04
2022-11-28T11:07:33.901Z,1013.90
2022-11-28T11:22:34.928Z,1013.86
2022-11-28T11:37:35.017Z,1013.98
2022-11-28T11:52:35.664Z,1013.79
2022-11-28T12:07:36.381Z,1013.51
2022-11-28T12:22:36.988Z,1013.28
2022-11-28T12:38:09.059Z,1013.34
2022-11-28T12:52:42.652Z,1013.36
2022-11-28T13:07:42.826Z,1013.28
2022-11-28T13:22:42.976Z,1013.12
2022-11-28T13:52:48.687Z,1013.17
2022-11-28T14:07:49.694Z,1013.20
2022-11-28T14:22:50.792Z,1013.13
2022-11-28T14:37:50.436Z,1013.14
2022-11-28T14:52:51.637Z,1013.20
2022-11-28T15:07:52.202Z,1013.34
2022-11-28T15:22:52.506Z,1013.39
2022-11-28T15:37:53.033Z,1013.35
2022-11-28T15:52:52.884Z,1013.39
2022-11-28T16:07:52.957Z,1013.55
2022-11-28T16:22:52.996Z,1013.57
2022-11-28T16:37:53.660Z,1013.47
2022-11-28T16:52:55.674Z,1013.51
2022-11-28T17:07:58.023Z,1013.56
2022-11-28T17:23:00.271Z,1013.57
2022-11-28T17:38:01.341Z,1013.61
2022-11-28T17:53:02.642Z,1013.60
2022-11-28T18:08:04.648Z,1013.52
2022-11-28T18:23:04.736Z,1013.44
2022-11-28T18:38:05.003Z,1013.51
2022-11-28T18:53:05.559Z,1013.30
2022-11-28T19:08:05.833Z,1013.30
2022-11-28T19:23:06.611Z,1013.42
2022-11-28T19:38:08.310Z,1013.56
2022-11-28T19:53:10.790Z,1013.50
2022-11-28T20:08:12.329Z,1013.59
2022-11-28T20:23:13.276Z,1013.63
2022-11-28T20:38:15.710Z,1013.68
2022-11-28T20:53:22.180Z,1013.56
2022-11-28T21:08:23.828Z,1013.62
2022-11-28T21:23:24.939Z,1013.50
2022-11-28T21:38:25.079Z,1013.55
2022-11-28T21:53:26.248Z,1013.47
2022-11-28T22:08:27.824Z,1013.50
2022-11-28T22:23:27.944Z,1013.63
2022-11-28T22:38:28.058Z,1013.62
2022-11-28T22:53:28.713Z,1013.64
2022-11-28T23:08:29.315Z,1013.60
2022-11-28T23:23:30.042Z,1013.62
2022-11-28T23:38:30.693Z,1013.71
2022-11-28T23:53:30.688Z,1013.69
